createdAt,value
2023-03-15T00:02:29.066Z,9.30
2023-03-15T00:06:35.167Z,9.32
2023-03-15T00:10:41.703Z,9.31
2023-03-15T00:14:44.994Z,9.29
2023-03-15T00:18:48.177Z,9.29
2023-03-15T00:22:52.734Z,9.29
2023-03-15T00:26:55.601Z,9.30
2023-03-15T00:31:07.293Z,9.31
2023-03-15T00:35:13.001Z,9.30
2023-03-15T00:39:17.830Z,9.30
2023-03-15T00:43:20.692Z,9.27
2023-03-15T00:47:24.667Z,9.19
2023-03-15T00:51:29.038Z,9.18
2023-03-15T00:55:33.623Z,9.14
2023-03-15T00:59:36.529Z,9.12
2023-03-15T01:03:40.129Z,9.07
2023-03-15T01:07:45.700Z,9.03
2023-03-15T01:11:50.487Z,8.95
2023-03-15T01:15:53.549Z,8.91
2023-03-15T01:19:56.929Z,8.85
2023-03-15T01:24:00.125Z,8.80
2023-03-15T01:28:04.713Z,8.75
2023-03-15T01:32:08.641Z,8.68
2023-03-15T01:36:13.298Z,8.63
2023-03-15T01:40:16.244Z,8.57
2023-03-15T01:44:21.587Z,8.53
2023-03-15T01:48:27.968Z,8.47
2023-03-15T01:52:35.514Z,8.49
2023-03-15T01:56:42.934Z,8.44
2023-03-15T02:00:47.705Z,8.44
2023-03-15T02:04:54.545Z,8.43
2023-03-15T02:09:03.089Z,8.39
2023-03-15T02:13:08.301Z,8.35
2023-03-15T02:17:13.220Z,8.33
2023-03-15T02:21:27.647Z,8.35
2023-03-15T02:25:39.029Z,8.35
2023-03-15T02:29:43.697Z,8.35
2023-03-15T02:33:48.584Z,8.37
2023-03-15T02:37:52.588Z,8.37
2023-03-15T02:41:58.768Z,8.36
2023-03-15T02:46:05.466Z,8.36
2023-03-15T02:50:09.369Z,8.31
2023-03-15T02:54:12.573Z,8.30
2023-03-15T02:58:15.574Z,8.28
2023-03-15T03:02:21.140Z,8.25
2023-03-15T03:06:24.404Z,8.25
2023-03-15T03:10:27.752Z,8.24
2023-03-15T03:14:31.286Z,8.22
2023-03-15T03:18:36.343Z,8.18
2023-03-15T03:22:39.895Z,8.20
2023-03-15T03:26:46.474Z,8.21
2023-03-15T03:30:49.437Z,8.18
2023-03-15T03:34:54.277Z,8.17
2023-03-15T03:38:57.304Z,8.16
2023-03-15T03:43:00.609Z,8.11
2023-03-15T03:47:03.520Z,8.10
2023-03-15T03:51:08.416Z,8.08
2023-03-15T03:55:13.736Z,8.03
2023-03-15T03:59:17.244Z,8.00
2023-03-15T04:03:20.922Z,7.94
2023-03-15T04:07:25.686Z,7.89
2023-03-15T04:11:28.600Z,7.81
2023-03-15T04:15:32.168Z,7.78
2023-03-15T04:19:35.033Z,7.72
2023-03-15T04:23:40.213Z,7.73
2023-03-15T04:27:43.250Z,7.74
2023-03-15T04:31:47.362Z,7.76
2023-03-15T04:35:52.729Z,7.77
2023-03-15T04:40:35.507Z,7.80
2023-03-15T04:44:38.371Z,7.84
2023-03-15T04:48:42.201Z,7.87
2023-03-15T04:52:45.089Z,7.91
2023-03-15T04:56:49.736Z,7.96
2023-03-15T05:00:54.277Z,8.01
2023-03-15T05:04:57.970Z,8.05
2023-03-15T05:09:01.184Z,8.06
2023-03-15T05:13:05.784Z,8.08
2023-03-15T05:17:09.151Z,8.09
2023-03-15T05:21:13.039Z,8.06
2023-03-15T05:25:16.669Z,8.03
2023-03-15T05:29:21.764Z,8.04
2023-03-15T05:33:24.693Z,8.05
2023-03-15T05:37:28.348Z,8.06
2023-03-15T05:41:31.322Z,8.06
2023-03-15T05:45:36.385Z,8.03
2023-03-15T05:49:39.488Z,8.00
2023-03-15T05:53:44.653Z,7.97
2023-03-15T05:57:49.074Z,7.91
2023-03-15T06:01:53.828Z,7.86
2023-03-15T06:05:57.071Z,7.80
2023-03-15T06:10:00.295Z,7.72
2023-03-15T06:14:03.788Z,7.62
2023-03-15T06:18:09.019Z,7.51
2023-03-15T06:22:12.333Z,7.39
2023-03-15T06:26:16.324Z,7.17
2023-03-15T06:30:20.634Z,6.90
2023-03-15T06:34:27.985Z,6.49
2023-03-15T06:38:31.277Z,6.07
2023-03-15T06:42:34.831Z,5.70
2023-03-15T06:46:38.096Z,5.39
2023-03-15T06:50:47.295Z,5.14
2023-03-15T06:54:50.787Z,4.95
2023-03-15T06:58:54.160Z,4.86
2023-03-15T07:02:57.217Z,4.82
2023-03-15T07:07:01.802Z,4.82
2023-03-15T07:11:06.513Z,4.81
2023-03-15T07:15:10.882Z,4.79
2023-03-15T07:19:13.853Z,4.79
2023-03-15T07:23:19.643Z,4.79
2023-03-15T07:27:22.769Z,4.73
2023-03-15T07:31:26.771Z,4.70
2023-03-15T07:35:30.012Z,4.69
2023-03-15T07:39:35.082Z,4.74
2023-03-15T07:43:38.233Z,4.78
2023-03-15T07:47:44.198Z,4.82
2023-03-15T07:51:47.159Z,4.82
2023-03-15T07:55:52.090Z,4.78
2023-03-15T07:59:55.390Z,4.73
2023-03-15T08:03:58.966Z,4.72
2023-03-15T08:08:01.888Z,4.75
2023-03-15T08:12:06.950Z,4.81
2023-03-15T08:16:10.008Z,4.92
2023-03-15T08:20:34.166Z,5.05
2023-03-15T08:24:37.303Z,5.20
2023-03-15T08:28:42.968Z,5.30
2023-03-15T08:32:47.785Z,5.36
2023-03-15T08:36:51.791Z,5.42
2023-03-15T08:40:57.917Z,5.54
2023-03-15T08:45:02.852Z,5.65
2023-03-15T08:49:05.915Z,5.75
2023-03-15T08:53:09.894Z,5.88
2023-03-15T08:57:13.694Z,6.03
2023-03-15T09:01:18.244Z,6.18
2023-03-15T09:05:23.092Z,6.32
2023-03-15T09:09:26.243Z,6.46
2023-03-15T09:13:30.485Z,6.60
2023-03-15T09:17:34.800Z,6.77
2023-03-15T09:21:38.666Z,6.91
2023-03-15T09:25:41.833Z,7.09
2023-03-15T09:29:46.761Z,7.36
2023-03-15T09:33:51.049Z,7.60
2023-03-15T09:37:54.472Z,7.83
2023-03-15T09:41:59.040Z,8.08
2023-03-15T09:46:12.465Z,8.44
2023-03-15T09:50:22.895Z,8.80
2023-03-15T09:54:33.886Z,9.08
2023-03-15T09:58:37.428Z,9.29
2023-03-15T10:02:48.475Z,9.48
2023-03-15T10:06:56.819Z,9.73
2023-03-15T10:11:10.880Z,10.02
2023-03-15T10:15:28.411Z,10.39
2023-03-15T10:19:41.928Z,10.70
2023-03-15T10:23:51.551Z,10.94
2023-03-15T10:27:59.098Z,11.18
2023-03-15T10:32:02.153Z,11.45
2023-03-15T10:36:15.832Z,11.66
2023-03-15T10:40:40.465Z,11.69
2023-03-15T10:44:43.906Z,11.53
2023-03-15T10:48:58.598Z,11.35
2023-03-15T10:53:10.823Z,11.20
2023-03-15T10:57:19.285Z,11.23
2023-03-15T11:01:28.486Z,11.26
2023-03-15T11:05:33.519Z,11.22
2023-03-15T11:09:41.472Z,11.13
2023-03-15T11:13:59.677Z,11.07
2023-03-15T11:18:03.051Z,11.07
2023-03-15T11:22:06.037Z,11.09
2023-03-15T11:26:25.778Z,11.20
2023-03-15T11:30:36.022Z,11.40
2023-03-15T11:34:44.519Z,11.47
2023-03-15T11:38:48.797Z,11.45
2023-03-15T11:42:59.743Z,11.48
2023-03-15T11:47:12.310Z,11.50
2023-03-15T11:51:16.400Z,11.54
2023-03-15T11:55:24.036Z,11.58
2023-03-15T11:59:30.957Z,11.53
2023-03-15T12:03:39.466Z,11.41
2023-03-15T12:08:21.883Z,11.33
2023-03-15T12:12:45.916Z,11.42
2023-03-15T12:16:49.700Z,11.52
2023-03-15T12:21:07.558Z,11.49
2023-03-15T12:25:16.126Z,11.50
2023-03-15T12:29:26.130Z,11.55
2023-03-15T12:33:32.413Z,11.68
2023-03-15T12:37:44.640Z,11.88
2023-03-15T12:41:50.744Z,11.96
2023-03-15T12:45:53.776Z,11.97
2023-03-15T12:49:57.734Z,11.93
2023-03-15T12:54:04.652Z,11.83
2023-03-15T12:58:13.690Z,11.84
2023-03-15T13:02:43.464Z,11.72
2023-03-15T13:07:15.700Z,11.63
2023-03-15T13:11:26.417Z,11.50
2023-03-15T13:15:33.096Z,11.40
2023-03-15T13:19:42.404Z,11.42
2023-03-15T13:23:52.070Z,11.27
2023-03-15T13:28:00.318Z,11.06
2023-03-15T13:32:26.377Z,10.93
2023-03-15T13:36:44.935Z,11.03
2023-03-15T13:41:07.910Z,11.22
2023-03-15T13:45:24.224Z,11.47
2023-03-15T13:49:53.092Z,11.76
2023-03-15T13:54:06.552Z,11.98
2023-03-15T13:58:16.307Z,12.05
2023-03-15T14:02:36.381Z,11.88
2023-03-15T14:06:40.037Z,11.59
2023-03-15T14:10:43.640Z,11.29
2023-03-15T14:14:52.004Z,11.11
2023-03-15T14:18:57.383Z,11.10
2023-03-15T14:23:03.505Z,11.17
2023-03-15T14:27:09.616Z,11.22
2023-03-15T14:31:24.699Z,11.17
2023-03-15T14:35:32.674Z,11.02
2023-03-15T14:39:55.088Z,10.86
2023-03-15T14:43:58.733Z,10.70
2023-03-15T14:48:05.748Z,10.63
2023-03-15T14:52:14.722Z,10.65
2023-03-15T14:56:19.798Z,10.81
2023-03-15T15:00:24.974Z,11.12
2023-03-15T15:04:34.270Z,11.46
2023-03-15T15:08:41.900Z,11.75
2023-03-15T15:12:48.513Z,11.96
2023-03-15T15:16:53.736Z,12.19
2023-03-15T15:20:57.884Z,12.37
2023-03-15T15:25:02.285Z,12.50
2023-03-15T15:29:05.583Z,12.52
2023-03-15T15:33:08.602Z,12.51
2023-03-15T15:41:25.046Z,12.22
2023-03-15T15:45:27.969Z,11.98
2023-03-15T15:49:31.321Z,11.65
2023-03-15T15:53:34.566Z,11.35
2023-03-15T15:57:39.119Z,11.14
2023-03-15T16:01:59.023Z,10.99
2023-03-15T16:06:03.761Z,10.87
2023-03-15T16:10:08.784Z,10.81
2023-03-15T16:14:14.528Z,10.70
2023-03-15T16:18:17.428Z,10.59
2023-03-15T16:22:23.186Z,10.40
2023-03-15T16:26:26.403Z,10.13
2023-03-15T16:30:33.785Z,9.84
2023-03-15T16:34:36.790Z,9.58
2023-03-15T16:38:40.050Z,9.35
2023-03-15T16:42:42.966Z,9.11
2023-03-15T16:46:48.616Z,8.90
2023-03-15T16:50:51.924Z,8.73
2023-03-15T16:54:55.230Z,8.58
2023-03-15T16:58:58.519Z,8.44
2023-03-15T17:03:03.617Z,8.36
2023-03-15T17:07:06.905Z,8.28
2023-03-15T17:11:10.977Z,8.23
2023-03-15T17:15:14.301Z,8.18
2023-03-15T17:19:19.166Z,8.15
2023-03-15T17:23:22.441Z,8.14
2023-03-15T17:27:33.215Z,8.07
2023-03-15T17:31:36.972Z,8.08
2023-03-15T17:35:57.885Z,8.04
2023-03-15T17:40:01.201Z,7.97
2023-03-15T17:44:06.361Z,7.89
2023-03-15T17:48:09.721Z,7.83
2023-03-15T17:52:17.631Z,7.75
2023-03-15T17:56:22.885Z,7.68
2023-03-15T18:00:26.373Z,7.63
2023-03-15T18:04:29.675Z,7.55
2023-03-15T18:08:38.437Z,7.49
2023-03-15T18:12:43.274Z,7.41
2023-03-15T18:16:47.340Z,7.36
2023-03-15T18:20:54.633Z,7.32
2023-03-15T18:25:02.399Z,7.28
2023-03-15T18:29:08.027Z,7.24
2023-03-15T18:33:12.987Z,7.19
2023-03-15T18:37:16.658Z,7.14
2023-03-15T18:41:24.203Z,7.10
2023-03-15T18:45:29.138Z,7.04
2023-03-15T18:49:35.733Z,6.97
2023-03-15T18:53:39.081Z,6.89
2023-03-15T18:57:45.202Z,6.81
2023-03-15T19:01:48.352Z,6.72
2023-03-15T19:05:51.862Z,6.62
2023-03-15T19:09:54.976Z,6.57
2023-03-15T19:13:59.996Z,6.45
2023-03-15T19:18:03.249Z,6.50
2023-03-15T19:22:06.577Z,6.48
2023-03-15T19:26:13.963Z,6.48
2023-03-15T19:30:22.692Z,6.48
2023-03-15T19:34:25.716Z,6.50
2023-03-15T19:38:29.709Z,6.52
2023-03-15T19:42:32.707Z,6.54
2023-03-15T19:46:39.322Z,6.57
2023-03-15T19:50:43.000Z,6.54
2023-03-15T19:54:47.957Z,6.55
2023-03-15T19:58:51.413Z,6.47
2023-03-15T20:02:57.350Z,6.51
2023-03-15T20:07:00.506Z,6.49
2023-03-15T20:11:05.692Z,6.43
2023-03-15T20:15:11.080Z,6.38
2023-03-15T20:19:15.821Z,6.30
2023-03-15T20:23:19.302Z,6.28
2023-03-15T20:27:23.197Z,6.24
2023-03-15T20:31:26.623Z,6.21
2023-03-15T20:35:32.075Z,6.19
2023-03-15T20:39:35.504Z,6.15
2023-03-15T20:43:38.940Z,6.13
2023-03-15T20:47:42.572Z,6.08
2023-03-15T20:51:47.502Z,6.06
2023-03-15T20:55:50.794Z,6.01
2023-03-15T20:59:54.215Z,5.97
2023-03-15T21:03:57.587Z,5.93
2023-03-15T21:08:02.450Z,5.87
2023-03-15T21:12:06.882Z,5.82
2023-03-15T21:16:10.487Z,5.76
2023-03-15T21:20:15.647Z,5.71
2023-03-15T21:24:20.352Z,5.62
2023-03-15T21:28:23.359Z,5.50
2023-03-15T21:32:29.109Z,5.39
2023-03-15T21:36:32.125Z,5.30
2023-03-15T21:40:36.658Z,5.22
2023-03-15T21:44:40.191Z,5.12
2023-03-15T21:48:43.833Z,5.04
2023-03-15T21:52:47.087Z,4.95
2023-03-15T21:56:53.307Z,4.85
2023-03-15T22:01:00.218Z,4.77
2023-03-15T22:05:05.928Z,4.70
2023-03-15T22:09:10.913Z,4.63
2023-03-15T22:13:15.440Z,4.54
2023-03-15T22:17:18.710Z,4.46
2023-03-15T22:21:21.904Z,4.41
2023-03-15T22:25:25.526Z,4.37
2023-03-15T22:29:29.859Z,4.29
2023-03-15T22:33:33.441Z,4.21
2023-03-15T22:37:36.596Z,4.12
2023-03-15T22:41:40.090Z,4.08
2023-03-15T22:45:44.416Z,4.04
2023-03-15T22:50:06.417Z,4.00
2023-03-15T22:54:10.291Z,3.95
2023-03-15T22:58:13.733Z,3.88
2023-03-15T23:02:18.309Z,3.86
2023-03-15T23:06:22.623Z,3.84
2023-03-15T23:10:25.979Z,3.86
2023-03-15T23:14:29.271Z,3.88
2023-03-15T23:18:34.677Z,3.89
2023-03-15T23:22:38.176Z,3.89
2023-03-15T23:26:42.321Z,3.89
2023-03-15T23:30:45.970Z,3.90
2023-03-15T23:34:50.551Z,3.92
2023-03-15T23:38:53.863Z,3.95
2023-03-15T23:42:59.425Z,4.01
2023-03-15T23:47:05.955Z,4.05
2023-03-15T23:51:13.031Z,4.10
2023-03-15T23:55:16.208Z,4.12
2023-03-15T23:59:21.283Z,4.14
